Athol, New York
Current Conditions -  °F | °C
As of 3:53 PM on Thursday 23 Oct 2014 (Local Time) from KGFL Reporting Station
Light Rain Light Rain  
Wind Chill: 43°   Ceiling: 2400
Heat Index: 47°   Visibility: 7mi
Dew Point: 44°   Wind: 8mph
Humidity: 90%   Direction: 40°NE
Pressure: 29.84"   Gusts: NA
Location:  43.46°N, 73.9°W
Report Text: KGFL 231953Z AUTO 04007KT 7SM -RA BKN024 OVC045 08/07 A2984 RMK AO2 PK WND 01026/1858 SLP109 P0002 T00830067
Loading
Personal Weather Stations






























Interactive Weather Map
Tropical Storm Tracking
New forecast layout! Learn more

10-Day Weather Forecast

Advertisements
Track Severe Weather on mobile